Time;durP1;ratioP1;P1;durP2;ratioP2;P2;SDS_P1;SDS_P2;PMS_P1;PMS_P2;Temp;Humidity;BMP_temperature;BMP_pressure;BME280_temperature;BME280_humidity;BME280_pressure;Samples;Min_cycle;Max_cycle;Signal;HPM_P1;HPM_P2
2022/12/25 00:00:18;;;;;;;;;;;4.30;99.90;;;;;;5042792;28;20066;-91
2022/12/25 00:02:48;;;;;;;;;;;4.40;99.90;;;;;;5042480;28;19928;-91
2022/12/25 00:05:45;;;;;;;;;;;4.30;99.90;;;;;;5039656;28;19924;-91
2022/12/25 00:08:31;;;;;;;;;;;3.60;99.90;;;;;;5041208;28;19925;-92
2022/12/25 00:11:18;;;;;;;;;;;3.50;99.90;;;;;;5051849;28;19924;-91
2022/12/25 00:13:50;;;;;;;;;;;3.60;99.90;;;;;;5031189;28;19925;-91
2022/12/25 00:19:15;;;;;;;;;;;3.90;99.90;;;;;;5053159;28;19964;-91
2022/12/25 00:21:47;;;;;;;;;;;3.70;99.90;;;;;;5031204;28;19924;-91
2022/12/25 00:27:24;;;;;;;;;;;4.60;99.90;;;;;;5013041;28;19958;-92
2022/12/25 00:29:54;;;;;;;;;;;4.10;99.90;;;;;;5025726;28;19956;-91
2022/12/25 00:32:38;;;;;;;;;;;;;;;;;;;;;
2022/12/25 00:35:09;;;;;;;;;;;4.80;99.90;;;;;;5056986;28;19925;-91
2022/12/25 00:37:58;;;;;;;;;;;4.40;99.90;;;;;;5034984;28;19925;-91
2022/12/25 00:40:36;;;;;;;;;;;;;;;;;;;;;
2022/12/25 00:43:16;;;;;;;;;;;4.20;99.90;;;;;;5041430;28;19929;-91
2022/12/25 00:46:14;;;;;;;;;;;4.20;99.90;;;;;;5021788;28;19925;-91
2022/12/25 00:48:46;;;;;;;;;;;3.50;99.90;;;;;;5003348;28;19929;-92
2022/12/25 00:51:50;;;;;;;;;;;;;;;;;;;;;
2022/12/25 00:54:32;;;;;;;;;;;4.20;99.90;;;;;;5060388;28;20394;-91
2022/12/25 00:57:13;;;;;;;;;;;5.00;99.90;;;;;;5038488;28;19925;-92
2022/12/25 00:59:46;;;;;;;;;;;3.20;99.90;;;;;;5035724;28;19979;-91
2022/12/25 01:02:30;;;;;;;;;;;3.30;99.90;;;;;;5022185;28;19931;-91
2022/12/25 01:05:23;;;;;;;;;;;;;;;;;;;;;
2022/12/25 01:08:15;;;;;;;;;;;;;;;;;;;;;
2022/12/25 01:11:28;;;;;;;;;;;;;;;;;;;;;
2022/12/25 01:14:02;;;;;;;;;;;3.80;99.90;;;;;;5043590;28;20312;-91
2022/12/25 01:16:34;;;;;;;;;;;4.40;99.90;;;;;;5039037;28;19929;-91
2022/12/25 01:21:58;;;;;;;;;;;4.30;99.90;;;;;;5050539;28;19924;-91
2022/12/25 01:27:29;;;;;;;;;;;;;;;;;;;;;
2022/12/25 01:30:04;;;;;;;;;;;3.40;99.90;;;;;;5037974;28;20015;-91
2022/12/25 01:32:42;;;;;;;;;;;;;;;;;;;;;
2022/12/25 01:35:26;;;;;;;;;;;4.40;99.90;;;;;;5061797;28;19934;-91
2022/12/25 01:38:02;;;;;;;;;;;4.80;99.90;;;;;;5023845;28;19924;-91
2022/12/25 01:40:30;;;;;;;;;;;5.00;99.90;;;;;;5023944;28;19924;-91
2022/12/25 01:43:14;;;;;;;;;;;4.90;99.90;;;;;;5039073;28;19936;-91
2022/12/25 01:45:51;;;;;;;;;;;4.10;99.90;;;;;;5028134;28;19925;-91
2022/12/25 01:48:37;;;;;;;;;;;4.90;99.90;;;;;;5041770;28;20317;-91
2022/12/25 01:51:21;;;;;;;;;;;5.20;99.90;;;;;;5039841;28;19961;-91
2022/12/25 01:53:58;;;;;;;;;;;;;;;;;;;;;
2022/12/25 01:59:38;;;;;;;;;;;;;;;;;;;;;
2022/12/25 02:02:14;;;;;;;;;;;5.10;99.90;;;;;;5058013;28;19936;-92
2022/12/25 02:05:12;;;;;;;;;;;5.20;99.90;;;;;;5042245;28;19925;-91
2022/12/25 02:07:48;;;;;;;;;;;5.20;99.90;;;;;;5051021;28;19940;-91
2022/12/25 02:10:17;;;;;;;;;;;5.60;99.90;;;;;;5050988;28;19978;-91
2022/12/25 02:13:04;;;;;;;;;;;6.20;99.90;;;;;;5041001;28;19975;-91
2022/12/25 02:16:00;;;;;;;;;;;5.50;99.90;;;;;;5019696;28;19925;-91
2022/12/25 02:18:43;;;;;;;;;;;5.50;99.90;;;;;;4980429;28;19932;-91
2022/12/25 02:21:28;;;;;;;;;;;5.50;99.90;;;;;;5031789;28;19925;-91
2022/12/25 02:24:27;;;;;;;;;;;4.50;99.90;;;;;;5077545;28;20063;-91
2022/12/25 02:27:40;;;;;;;;;;;6.30;99.90;;;;;;5075162;28;19969;-94
2022/12/25 02:30:07;;;;;;;;;;;5.60;99.90;;;;;;5020379;28;19994;-94
2022/12/25 02:34:01;;;;;;;;;;;5.60;99.90;;;;;;5059875;28;19923;-94
2022/12/25 02:36:02;;;;;;;;;;;;;;;;;;;;;
2022/12/25 02:41:59;;;;;;;;;;;4.60;99.90;;;;;;5036066;28;19925;-94
2022/12/25 03:08:15;;;;;;;;;;;6.00;99.90;;;;;;5051966;28;20370;-93
2022/12/25 03:16:59;;;;;;;;;;;;;;;;;;;;;
2022/12/25 03:17:16;;;;;;;;;;;5.20;99.90;;;;;;5013004;28;19925;-93
2022/12/25 03:28:33;;;;;;;;;;;6.00;99.90;;;;;;5069563;28;19928;-93
2022/12/25 03:31:30;;;;;;;;;;;6.00;99.90;;;;;;5039580;28;19930;-95
2022/12/25 04:36:37;;;;;;;;;;;6.40;99.90;;;;;;5053730;28;20346;-93
2022/12/25 04:39:39;;;;;;;;;;;;;;;;;;;;;
2022/12/25 04:42:17;;;;;;;;;;;;;;;;;;;;;
2022/12/25 04:45:08;;;;;;;;;;;5.50;99.90;;;;;;5055801;28;19947;-92
2022/12/25 04:47:58;;;;;;;;;;;6.70;99.90;;;;;;5055070;28;20376;-92
2022/12/25 04:50:51;;;;;;;;;;;7.60;99.90;;;;;;5025387;28;19973;-92
2022/12/25 04:53:58;;;;;;;;;;;6.70;99.90;;;;;;5038552;28;19925;-92
2022/12/25 04:56:32;;;;;;;;;;;6.80;99.90;;;;;;5048758;28;19928;-93
2022/12/25 04:59:05;;;;;;;;;;;6.80;99.90;;;;;;5038378;28;19925;-92
2022/12/25 05:01:39;;;;;;;;;;;6.70;99.90;;;;;;5039195;28;20394;-93
2022/12/25 05:04:15;;;;;;;;;;;6.90;99.90;;;;;;5039176;28;19998;-93
2022/12/25 05:07:04;;;;;;;;;;;5.90;99.90;;;;;;5023960;28;19952;-92
2022/12/25 05:10:01;;;;;;;;;;;;;;;;;;;;;
2022/12/25 05:12:51;;;;;;;;;;;;;;;;;;;;;
2022/12/25 05:15:38;;;;;;;;;;;;;;;;;;;;;
2022/12/25 05:18:18;;;;;;;;;;;6.90;99.90;;;;;;5049169;28;19924;-91
2022/12/25 05:20:51;;;;;;;;;;;6.90;99.90;;;;;;5043287;28;19925;-92
2022/12/25 05:23:19;;;;;;;;;;;6.30;99.90;;;;;;5026078;28;19950;-91
2022/12/25 05:26:20;;;;;;;;;;;7.00;99.90;;;;;;5041931;28;20022;-92
2022/12/25 05:29:00;;;;;;;;;;;6.40;99.90;;;;;;5032810;28;20033;-91
2022/12/25 05:34:33;;;;;;;;;;;7.00;99.90;;;;;;5053848;28;19925;-91
2022/12/25 05:37:05;;;;;;;;;;;6.90;99.90;;;;;;5071400;28;19924;-92
2022/12/25 05:39:40;;;;;;;;;;;6.90;99.90;;;;;;5026007;28;19932;-92
2022/12/25 05:45:23;;;;;;;;;;;7.00;99.90;;;;;;5057851;28;19929;-92
2022/12/25 05:48:15;;;;;;;;;;;;;;;;;;;;;
2022/12/25 05:50:58;;;;;;;;;;;7.20;99.90;;;;;;5044630;28;20006;-92
2022/12/25 05:53:45;;;;;;;;;;;7.00;99.90;;;;;;5060730;28;19925;-92
2022/12/25 05:56:39;;;;;;;;;;;;;;;;;;;;;
2022/12/25 05:59:25;;;;;;;;;;;7.60;99.90;;;;;;5040310;28;19935;-92
2022/12/25 06:02:03;;;;;;;;;;;7.00;99.90;;;;;;5048350;28;20355;-92
2022/12/25 06:04:44;;;;;;;;;;;;;;;;;;;;;
2022/12/25 06:07:18;;;;;;;;;;;7.10;99.90;;;;;;5055370;28;19924;-93
2022/12/25 06:09:59;;;;;;;;;;;7.00;99.90;;;;;;5043577;28;19924;-91
2022/12/25 06:16:18;;;;;;;;;;;7.10;99.90;;;;;;5060099;28;19929;-91
2022/12/25 06:19:06;;;;;;;;;;;;;;;;;;;;;
2022/12/25 06:22:02;;;;;;;;;;;7.10;99.90;;;;;;5069814;28;19925;-91
2022/12/25 06:24:43;;;;;;;;;;;7.00;99.90;;;;;;5059319;28;19931;-92
2022/12/25 06:27:28;;;;;;;;;;;7.10;99.90;;;;;;5041607;28;19928;-92
2022/12/25 06:30:00;;;;;;;;;;;7.20;99.90;;;;;;5034599;28;19928;-90
2022/12/25 06:32:38;;;;;;;;;;;7.10;99.90;;;;;;5026127;28;20269;-92
2022/12/25 06:35:20;;;;;;;;;;;7.20;99.90;;;;;;5046177;28;19925;-91
2022/12/25 06:38:12;;;;;;;;;;;;;;;;;;;;;
2022/12/25 06:41:15;;;;;;;;;;;7.20;99.90;;;;;;5048659;28;20007;-92
2022/12/25 06:43:53;;;;;;;;;;;8.50;99.90;;;;;;5039076;28;19982;-92
2022/12/25 06:46:55;;;;;;;;;;;6.40;99.90;;;;;;5054688;28;20280;-90
2022/12/25 06:49:41;;;;;;;;;;;7.20;99.90;;;;;;5040820;28;19977;-92
2022/12/25 06:52:34;;;;;;;;;;;;;;;;;;;;;
2022/12/25 06:55:22;;;;;;;;;;;7.00;99.90;;;;;;5040455;28;20398;-91
2022/12/25 06:57:54;;;;;;;;;;;7.20;99.90;;;;;;5037539;28;19925;-92
2022/12/25 07:00:30;;;;;;;;;;;7.20;99.90;;;;;;5040454;28;19913;-92
2022/12/25 07:03:29;;;;;;;;;;;7.30;99.90;;;;;;5072886;28;19913;-91
2022/12/25 07:06:15;;;;;;;;;;;7.20;99.90;;;;;;5082918;28;19980;-93
2022/12/25 07:08:43;;;;;;;;;;;7.20;99.90;;;;;;5056478;28;20018;-91
2022/12/25 07:11:41;;;;;;;;;;;7.20;99.90;;;;;;5060051;28;19937;-92
2022/12/25 07:14:57;;;;;;;;;;;6.80;99.90;;;;;;5051539;28;19936;-92
2022/12/25 07:17:57;;;;;;;;;;;7.30;99.90;;;;;;5066905;28;20337;-92
2022/12/25 07:20:54;;;;;;;;;;;6.40;99.90;;;;;;5038680;28;19946;-91
2022/12/25 07:23:59;;;;;;;;;;;7.20;99.90;;;;;;5010909;28;19981;-92
2022/12/25 07:26:27;;;;;;;;;;;7.30;99.90;;;;;;4989270;28;20376;-92
2022/12/25 07:29:18;;;;;;;;;;;7.20;99.90;;;;;;5056081;28;20029;-92
2022/12/25 07:32:07;;;;;;;;;;;7.30;99.90;;;;;;5057413;28;19943;-92
2022/12/25 07:37:35;;;;;;;;;;;7.20;99.90;;;;;;5053082;28;19931;-91
2022/12/25 07:46:29;;;;;;;;;;;7.30;99.90;;;;;;5049087;28;19936;-92
2022/12/25 07:49:32;;;;;;;;;;;6.50;99.90;;;;;;4967417;28;19935;-91
2022/12/25 07:52:34;;;;;;;;;;;7.40;99.90;;;;;;5068445;28;20034;-93
2022/12/25 07:55:13;;;;;;;;;;;6.40;99.90;;;;;;5046120;28;19954;-94
2022/12/25 07:57:57;;;;;;;;;;;;;;;;;;;;;
2022/12/25 08:01:21;;;;;;;;;;;;;;;;;;;;;
2022/12/25 08:04:00;;;;;;;;;;;7.40;99.90;;;;;;5038407;28;19936;-91
2022/12/25 08:06:46;;;;;;;;;;;7.50;99.90;;;;;;5046397;28;19924;-91
2022/12/25 08:09:17;;;;;;;;;;;6.60;99.90;;;;;;5023862;28;20024;-93
2022/12/25 08:11:56;;;;;;;;;;;7.50;99.90;;;;;;5023976;28;19986;-91
2022/12/25 08:14:27;;;;;;;;;;;7.60;99.90;;;;;;5023432;28;19974;-91
2022/12/25 08:22:47;;;;;;;;;;;7.60;99.90;;;;;;5036592;28;19932;-89
2022/12/25 08:25:46;;;;;;;;;;;7.60;99.90;;;;;;5038075;28;19924;-93
2022/12/25 08:28:22;;;;;;;;;;;8.50;99.90;;;;;;5020399;28;19936;-93
2022/12/25 08:31:01;;;;;;;;;;;7.50;99.90;;;;;;4998955;28;20010;-91
2022/12/25 08:33:47;;;;;;;;;;;6.80;99.90;;;;;;5055952;28;20328;-92
2022/12/25 08:36:26;;;;;;;;;;;;;;;;;;;;;
2022/12/25 08:39:08;;;;;;;;;;;7.60;99.90;;;;;;5054738;28;19924;-93
2022/12/25 08:44:45;;;;;;;;;;;7.60;99.90;;;;;;5055596;28;19928;-90
2022/12/25 08:47:29;;;;;;;;;;;7.60;99.90;;;;;;5037547;28;19937;-91
2022/12/25 08:50:08;;;;;;;;;;;7.60;99.90;;;;;;5055195;28;19951;-91
2022/12/25 08:52:58;;;;;;;;;;;7.50;99.90;;;;;;5055002;28;19990;-91
2022/12/25 08:55:26;;;;;;;;;;;8.80;99.90;;;;;;5024565;28;19926;-91
2022/12/25 08:57:54;;;;;;;;;;;6.90;99.90;;;;;;5031524;28;20373;-90
2022/12/25 09:00:28;;;;;;;;;;;7.70;99.90;;;;;;4991307;28;19986;-91
2022/12/25 09:03:31;;;;;;;;;;;7.00;99.90;;;;;;5042686;28;19931;-92
2022/12/25 09:06:03;;;;;;;;;;;8.40;99.90;;;;;;5039949;28;19931;-92
2022/12/25 09:08:51;;;;;;;;;;;7.70;99.90;;;;;;5026738;28;19924;-90
2022/12/25 09:11:18;;;;;;;;;;;7.70;99.90;;;;;;5054832;28;19924;-92
2022/12/25 09:13:56;;;;;;;;;;;;;;;;;;;;;
2022/12/25 09:16:45;;;;;;;;;;;7.70;99.90;;;;;;5045496;28;20390;-93
2022/12/25 09:22:54;;;;;;;;;;;7.70;99.90;;;;;;5033777;28;19961;-91
2022/12/25 09:25:23;;;;;;;;;;;7.80;99.90;;;;;;5032653;28;19925;-92
2022/12/25 09:34:06;;;;;;;;;;;7.80;99.90;;;;;;5060344;28;19924;-91
2022/12/25 09:36:44;;;;;;;;;;;;;;;;;;;;;
2022/12/25 09:39:22;;;;;;;;;;;;;;;;;;;;;
2022/12/25 09:42:10;;;;;;;;;;;7.80;99.90;;;;;;5059061;28;19925;-93
2022/12/25 09:45:01;;;;;;;;;;;7.80;99.90;;;;;;5048432;28;19948;-94
2022/12/25 09:47:42;;;;;;;;;;;8.00;99.90;;;;;;5051737;28;19926;-93
2022/12/25 09:50:14;;;;;;;;;;;7.80;99.90;;;;;;5040414;28;20287;-93
2022/12/25 09:53:00;;;;;;;;;;;7.80;99.90;;;;;;5042366;28;19931;-91
2022/12/25 09:55:31;;;;;;;;;;;7.80;99.90;;;;;;5000300;28;19970;-89
2022/12/25 09:58:08;;;;;;;;;;;7.90;99.90;;;;;;5002840;28;20011;-91
2022/12/25 10:00:47;;;;;;;;;;;;;;;;;;;;;
2022/12/25 10:03:36;;;;;;;;;;;7.70;99.90;;;;;;5016737;28;20006;-90
2022/12/25 10:06:40;;;;;;;;;;;7.80;99.90;;;;;;5003597;28;20146;-90
2022/12/25 10:09:14;;;;;;;;;;;7.90;99.90;;;;;;4958648;28;20033;-89
2022/12/25 10:12:02;;;;;;;;;;;7.80;99.90;;;;;;4942446;28;20065;-88
2022/12/25 10:14:51;;;;;;;;;;;8.20;99.90;;;;;;4957043;28;19926;-90
2022/12/25 10:17:33;;;;;;;;;;;7.80;99.90;;;;;;4981345;28;19945;-90
2022/12/25 10:20:14;;;;;;;;;;;7.80;99.90;;;;;;5038079;28;20011;-88
2022/12/25 10:22:43;;;;;;;;;;;7.90;99.90;;;;;;5020986;28;20364;-89
2022/12/25 10:25:46;;;;;;;;;;;;;;;;;;;;;
2022/12/25 10:28:24;;;;;;;;;;;7.90;99.90;;;;;;4964303;28;19926;-90
2022/12/25 10:30:59;;;;;;;;;;;7.20;99.90;;;;;;4967367;28;19924;-90
2022/12/25 10:33:27;;;;;;;;;;;8.70;99.90;;;;;;4986304;28;19972;-89
2022/12/25 10:36:03;;;;;;;;;;;7.10;99.90;;;;;;5017384;28;19925;-89
2022/12/25 10:38:31;;;;;;;;;;;7.90;99.90;;;;;;5017218;28;19932;-92
2022/12/25 10:41:35;;;;;;;;;;;;;;;;;;;;;
2022/12/25 10:44:12;;;;;;;;;;;7.20;99.90;;;;;;5002892;28;19934;-90
2022/12/25 10:46:58;;;;;;;;;;;8.10;99.90;;;;;;5014669;28;19924;-88
2022/12/25 10:49:29;;;;;;;;;;;7.40;99.90;;;;;;5018917;28;19933;-88
2022/12/25 10:52:00;;;;;;;;;;;8.10;99.90;;;;;;5027673;28;19961;-90
2022/12/25 10:54:34;;;;;;;;;;;8.10;99.90;;;;;;5007526;28;19953;-89
2022/12/25 10:57:11;;;;;;;;;;;8.20;99.90;;;;;;5018055;28;20368;-88
2022/12/25 10:59:55;;;;;;;;;;;;;;;;;;;;;
2022/12/25 11:02:31;;;;;;;;;;;8.20;99.90;;;;;;5035883;28;20365;-90
2022/12/25 11:05:05;;;;;;;;;;;8.30;99.90;;;;;;5037253;28;19925;-88
2022/12/25 11:11:07;;;;;;;;;;;8.30;99.90;;;;;;5025213;28;20011;-88
2022/12/25 11:13:49;;;;;;;;;;;;;;;;;;;;;
2022/12/25 11:16:33;;;;;;;;;;;8.40;99.90;;;;;;5038777;28;20297;-90
2022/12/25 11:19:01;;;;;;;;;;;8.40;99.90;;;;;;5001882;28;19971;-89
2022/12/25 11:24:27;;;;;;;;;;;8.40;99.90;;;;;;5061063;28;19925;-95
2022/12/25 11:27:07;;;;;;;;;;;8.40;99.90;;;;;;5024546;28;19920;-96
2022/12/25 11:29:38;;;;;;;;;;;8.40;99.90;;;;;;5061103;28;19967;-89
2022/12/25 11:32:15;;;;;;;;;;;8.40;99.90;;;;;;5014680;28;19964;-89
2022/12/25 11:34:42;;;;;;;;;;;8.50;99.90;;;;;;5025524;28;19925;-89
2022/12/25 11:37:17;;;;;;;;;;;8.40;99.90;;;;;;5025577;28;20316;-90
2022/12/25 11:39:43;;;;;;;;;;;8.40;99.90;;;;;;5051973;28;19928;-89
2022/12/25 11:42:21;;;;;;;;;;;8.50;99.90;;;;;;5029296;28;19931;-89
2022/12/25 11:45:00;;;;;;;;;;;8.50;99.90;;;;;;4984611;28;19987;-89
2022/12/25 11:47:47;;;;;;;;;;;7.70;99.90;;;;;;5024059;28;19964;-93
2022/12/25 11:50:22;;;;;;;;;;;8.50;99.90;;;;;;4985618;28;19979;-89
2022/12/25 11:52:48;;;;;;;;;;;8.50;99.90;;;;;;5027089;28;20356;-89
2022/12/25 11:55:45;;;;;;;;;;;9.30;99.90;;;;;;5034168;28;19929;-89
2022/12/25 11:58:49;;;;;;;;;;;8.50;99.90;;;;;;5028412;28;19937;-90
2022/12/25 12:01:20;;;;;;;;;;;8.50;99.90;;;;;;5025900;28;19930;-90
2022/12/25 12:03:50;;;;;;;;;;;8.50;99.90;;;;;;5071076;28;20062;-90
2022/12/25 12:06:39;;;;;;;;;;;8.50;99.90;;;;;;5046989;28;19931;-89
2022/12/25 12:09:14;;;;;;;;;;;8.50;99.90;;;;;;5011597;28;19930;-89
2022/12/25 12:11:48;;;;;;;;;;;8.50;99.90;;;;;;5035055;28;19926;-89
2022/12/25 12:14:39;;;;;;;;;;;8.50;99.90;;;;;;5016495;28;19926;-88
2022/12/25 12:17:11;;;;;;;;;;;7.80;99.90;;;;;;5044196;28;19924;-88
2022/12/25 12:19:37;;;;;;;;;;;8.50;99.90;;;;;;5037731;28;19980;-88
2022/12/25 12:22:12;;;;;;;;;;;8.50;99.90;;;;;;5055303;28;20347;-88
2022/12/25 12:24:41;;;;;;;;;;;8.50;99.90;;;;;;5055802;28;19932;-88
2022/12/25 12:27:46;;;;;;;;;;;9.40;99.90;;;;;;5037484;28;20308;-88
2022/12/25 12:30:41;;;;;;;;;;;8.50;99.90;;;;;;5037435;28;19949;-88
2022/12/25 12:33:16;;;;;;;;;;;8.50;99.90;;;;;;5021241;28;19965;-88
2022/12/25 12:35:41;;;;;;;;;;;8.50;99.90;;;;;;5030702;28;20405;-88
2022/12/25 12:38:16;;;;;;;;;;;8.50;99.90;;;;;;5052874;28;19925;-88
2022/12/25 12:40:53;;;;;;;;;;;8.50;99.90;;;;;;5015473;28;19937;-87
2022/12/25 12:43:51;;;;;;;;;;;8.50;99.90;;;;;;5038493;28;19930;-88
2022/12/25 12:46:20;;;;;;;;;;;8.50;99.90;;;;;;4977026;28;19927;-88
2022/12/25 12:49:07;;;;;;;;;;;8.60;99.90;;;;;;4967520;28;19937;-88
2022/12/25 12:51:55;;;;;;;;;;;8.50;99.90;;;;;;5049158;28;19927;-88
2022/12/25 12:54:22;;;;;;;;;;;8.60;99.90;;;;;;5022342;28;19979;-88
2022/12/25 12:57:11;;;;;;;;;;;8.60;99.90;;;;;;5034288;28;19931;-89
2022/12/25 12:59:39;;;;;;;;;;;8.50;99.90;;;;;;5054116;28;19929;-88
2022/12/25 13:02:12;;;;;;;;;;;8.80;99.90;;;;;;5038424;28;20296;-88
2022/12/25 13:04:51;;;;;;;;;;;8.60;99.90;;;;;;5054050;28;19970;-88
2022/12/25 13:07:34;;;;;;;;;;;8.60;99.90;;;;;;5035291;28;19932;-88
2022/12/25 13:10:22;;;;;;;;;;;8.10;99.90;;;;;;5049480;28;19925;-88
2022/12/25 13:13:01;;;;;;;;;;;8.60;99.90;;;;;;5043204;28;19932;-87
2022/12/25 13:15:31;;;;;;;;;;;8.70;99.90;;;;;;5052935;28;19970;-88
2022/12/25 13:18:01;;;;;;;;;;;8.70;99.90;;;;;;5053177;28;19924;-88
2022/12/25 13:20:37;;;;;;;;;;;8.80;99.90;;;;;;5054658;28;19936;-88
2022/12/25 13:23:36;;;;;;;;;;;8.10;99.90;;;;;;5052878;28;19924;-88
2022/12/25 13:26:25;;;;;;;;;;;8.70;99.90;;;;;;5054222;28;19924;-88
2022/12/25 13:28:54;;;;;;;;;;;8.70;99.90;;;;;;5030851;28;19964;-88
2022/12/25 13:31:26;;;;;;;;;;;8.70;99.90;;;;;;5042307;28;19933;-88
2022/12/25 13:34:04;;;;;;;;;;;8.70;99.90;;;;;;5025441;28;19926;-89
2022/12/25 13:36:35;;;;;;;;;;;8.70;99.90;;;;;;5037129;28;19924;-88
2022/12/25 13:39:23;;;;;;;;;;;8.70;99.90;;;;;;5058158;28;20284;-88
2022/12/25 13:42:04;;;;;;;;;;;8.80;99.90;;;;;;5047861;28;19932;-89
2022/12/25 13:44:48;;;;;;;;;;;8.80;99.90;;;;;;4985208;28;19931;-88
2022/12/25 13:47:20;;;;;;;;;;;8.70;99.90;;;;;;5057545;28;19938;-88
2022/12/25 13:49:49;;;;;;;;;;;7.80;99.90;;;;;;5021362;28;19924;-87
2022/12/25 13:52:20;;;;;;;;;;;8.70;99.90;;;;;;5014032;28;19935;-88
2022/12/25 13:54:57;;;;;;;;;;;8.70;99.90;;;;;;5024707;28;19932;-88
2022/12/25 13:57:25;;;;;;;;;;;8.70;99.90;;;;;;5024708;28;19944;-89
2022/12/25 13:59:51;;;;;;;;;;;9.00;99.90;;;;;;5023965;28;19926;-88
2022/12/25 14:02:19;;;;;;;;;;;8.70;99.90;;;;;;5040176;28;19949;-91
2022/12/25 14:04:47;;;;;;;;;;;8.70;99.90;;;;;;5038594;28;19928;-88
2022/12/25 14:07:22;;;;;;;;;;;8.70;99.90;;;;;;5023870;28;19933;-88
2022/12/25 14:09:58;;;;;;;;;;;8.70;99.90;;;;;;5041718;28;19934;-87
2022/12/25 14:12:30;;;;;;;;;;;8.70;99.90;;;;;;4998754;28;20334;-88
2022/12/25 14:14:57;;;;;;;;;;;8.70;99.90;;;;;;5000757;28;19933;-88
2022/12/25 14:17:33;;;;;;;;;;;8.70;99.90;;;;;;5040829;28;19975;-89
2022/12/25 14:20:22;;;;;;;;;;;8.60;99.90;;;;;;5039313;28;19968;-88
2022/12/25 14:23:00;;;;;;;;;;;;;;;;;;;;;
2022/12/25 14:25:32;;;;;;;;;;;8.60;99.90;;;;;;5013696;28;19930;-88
2022/12/25 14:28:06;;;;;;;;;;;8.60;99.90;;;;;;5007650;28;20392;-88
2022/12/25 14:30:41;;;;;;;;;;;8.60;99.90;;;;;;4979536;28;19977;-88
2022/12/25 14:33:35;;;;;;;;;;;7.80;99.90;;;;;;5020986;28;19974;-88
2022/12/25 14:36:06;;;;;;;;;;;8.60;99.90;;;;;;5009223;28;19980;-88
2022/12/25 14:41:41;;;;;;;;;;;8.70;99.90;;;;;;5035915;28;19957;-87
2022/12/25 14:44:27;;;;;;;;;;;8.60;99.90;;;;;;5024015;28;20362;-87
2022/12/25 14:47:22;;;;;;;;;;;8.50;99.90;;;;;;4989786;28;20008;-88
2022/12/25 14:49:48;;;;;;;;;;;8.60;99.90;;;;;;5006509;28;19926;-88
2022/12/25 14:52:16;;;;;;;;;;;8.60;99.90;;;;;;4956333;28;19930;-88
2022/12/25 14:55:00;;;;;;;;;;;8.60;99.90;;;;;;5035994;28;19931;-88
2022/12/25 14:57:32;;;;;;;;;;;8.60;99.90;;;;;;5057108;28;19931;-89
2022/12/25 15:00:27;;;;;;;;;;;8.50;99.90;;;;;;5056713;28;19939;-88
2022/12/25 15:02:58;;;;;;;;;;;8.60;99.90;;;;;;5049299;28;19924;-87
2022/12/25 15:05:37;;;;;;;;;;;8.00;99.90;;;;;;5046438;28;20319;-90
2022/12/25 15:08:22;;;;;;;;;;;8.30;99.90;;;;;;5039577;28;19925;-88
2022/12/25 15:10:50;;;;;;;;;;;8.50;99.90;;;;;;5049567;28;19948;-89
2022/12/25 15:13:21;;;;;;;;;;;8.50;99.90;;;;;;5039965;28;19935;-87
2022/12/25 15:15:59;;;;;;;;;;;8.50;99.90;;;;;;5037595;28;20487;-88
2022/12/25 15:18:38;;;;;;;;;;;8.50;99.90;;;;;;5070925;28;19924;-88
2022/12/25 15:21:04;;;;;;;;;;;8.50;99.90;;;;;;5056638;28;19950;-88
2022/12/25 15:23:30;;;;;;;;;;;8.50;99.90;;;;;;5043476;28;19924;-88
2022/12/25 15:26:23;;;;;;;;;;;8.50;99.90;;;;;;5024248;28;19924;-89
2022/12/25 15:29:06;;;;;;;;;;;8.50;99.90;;;;;;5039240;28;19935;-89
2022/12/25 15:31:37;;;;;;;;;;;8.30;99.90;;;;;;5053453;28;19977;-88
2022/12/25 15:34:04;;;;;;;;;;;8.50;99.90;;;;;;5042775;28;19980;-88
2022/12/25 15:36:56;;;;;;;;;;;8.50;99.90;;;;;;5067803;28;20055;-92
2022/12/25 15:39:22;;;;;;;;;;;8.50;99.90;;;;;;5089388;28;19920;-89
2022/12/25 15:42:10;;;;;;;;;;;8.50;99.90;;;;;;5076822;28;19935;-90
2022/12/25 15:44:49;;;;;;;;;;;7.50;99.90;;;;;;5057295;28;19939;-89
2022/12/25 15:47:16;;;;;;;;;;;8.50;99.90;;;;;;5075317;28;20372;-89
2022/12/25 15:49:42;;;;;;;;;;;8.50;99.90;;;;;;5051547;28;19924;-89
2022/12/25 15:52:18;;;;;;;;;;;8.50;99.90;;;;;;5056460;28;19960;-87
2022/12/25 15:57:45;;;;;;;;;;;8.50;99.90;;;;;;5054245;28;19924;-88
2022/12/25 16:00:16;;;;;;;;;;;8.30;99.90;;;;;;5072788;28;19924;-89
2022/12/25 16:02:44;;;;;;;;;;;8.40;99.90;;;;;;5044085;28;19928;-88
2022/12/25 16:05:23;;;;;;;;;;;;;;;;;;;;;
2022/12/25 16:08:02;;;;;;;;;;;8.50;99.90;;;;;;5041559;28;20284;-87
2022/12/25 16:10:30;;;;;;;;;;;8.50;99.90;;;;;;5041377;28;20334;-88
2022/12/25 16:16:13;;;;;;;;;;;8.40;99.90;;;;;;5070491;28;20007;-89
2022/12/25 16:18:56;;;;;;;;;;;;;;;;;;;;;
2022/12/25 16:21:53;;;;;;;;;;;8.40;99.90;;;;;;5043884;28;19928;-89
2022/12/25 16:24:42;;;;;;;;;;;8.40;99.90;;;;;;5061060;28;19964;-87
2022/12/25 16:27:10;;;;;;;;;;;8.40;99.90;;;;;;5032649;28;20393;-89
2022/12/25 16:29:36;;;;;;;;;;;8.40;99.90;;;;;;5055542;28;19925;-89
2022/12/25 16:32:32;;;;;;;;;;;;;;;;;;;;;
2022/12/25 16:35:00;;;;;;;;;;;8.40;99.90;;;;;;5055926;28;19950;-89
2022/12/25 16:37:29;;;;;;;;;;;8.00;99.90;;;;;;5039108;28;20283;-92
2022/12/25 16:40:11;;;;;;;;;;;8.30;99.90;;;;;;5039424;28;19925;-90
2022/12/25 16:42:44;;;;;;;;;;;8.40;99.90;;;;;;5055303;28;19925;-88
2022/12/25 16:45:15;;;;;;;;;;;7.60;99.90;;;;;;4972421;28;19932;-88
2022/12/25 16:50:32;;;;;;;;;;;8.40;99.90;;;;;;5036201;28;19924;-89
2022/12/25 16:53:11;;;;;;;;;;;7.70;99.90;;;;;;5043626;28;19976;-89
2022/12/25 16:55:45;;;;;;;;;;;8.40;99.90;;;;;;5025133;28;19947;-89
2022/12/25 16:58:24;;;;;;;;;;;8.80;99.90;;;;;;4988957;28;19929;-90
2022/12/25 17:01:12;;;;;;;;;;;;;;;;;;;;;
2022/12/25 17:03:49;;;;;;;;;;;8.20;99.90;;;;;;5038388;28;19925;-90
2022/12/25 17:06:38;;;;;;;;;;;8.50;99.90;;;;;;5046097;28;19982;-91
2022/12/25 17:09:18;;;;;;;;;;;;;;;;;;;;;
2022/12/25 17:12:14;;;;;;;;;;;8.40;99.90;;;;;;5029025;28;19979;-91
2022/12/25 17:15:08;;;;;;;;;;;7.50;99.90;;;;;;5003326;28;19925;-91
2022/12/25 17:24:39;;;;;;;;;;;;;;;;;;;;;
2022/12/25 17:27:32;;;;;;;;;;;;;;;;;;;;;
2022/12/25 17:30:14;;;;;;;;;;;8.30;99.90;;;;;;4974323;28;19977;-90
2022/12/25 17:33:19;;;;;;;;;;;;;;;;;;;;;
2022/12/25 17:36:16;;;;;;;;;;;;;;;;;;;;;
2022/12/25 17:41:57;;;;;;;;;;;8.90;99.90;;;;;;4959464;28;19933;-92
2022/12/25 17:44:30;;;;;;;;;;;7.90;99.90;;;;;;4943947;28;20322;-93
2022/12/25 17:47:25;;;;;;;;;;;8.20;99.90;;;;;;4952113;28;20038;-92
2022/12/25 17:50:17;;;;;;;;;;;8.30;99.90;;;;;;5073964;28;19924;-90
2022/12/25 17:56:05;;;;;;;;;;;;;;;;;;;;;
2022/12/25 17:58:46;;;;;;;;;;;9.00;99.90;;;;;;5058671;28;19925;-94
2022/12/25 18:01:38;;;;;;;;;;;7.70;99.90;;;;;;5012586;28;19981;-91
2022/12/25 18:04:26;;;;;;;;;;;8.30;99.90;;;;;;5052321;28;19924;-91
2022/12/25 18:06:59;;;;;;;;;;;7.70;99.90;;;;;;5011003;28;19943;-91
2022/12/25 18:09:37;;;;;;;;;;;;;;;;;;;;;
2022/12/25 18:12:44;;;;;;;;;;;7.60;99.90;;;;;;5070357;28;19928;-90
2022/12/25 18:15:33;;;;;;;;;;;9.40;99.90;;;;;;5007508;28;20443;-89
2022/12/25 18:18:09;;;;;;;;;;;7.70;99.90;;;;;;5044286;28;20387;-92
2022/12/25 18:20:52;;;;;;;;;;;;;;;;;;;;;
2022/12/25 18:23:51;;;;;;;;;;;;;;;;;;;;;
2022/12/25 18:29:35;;;;;;;;;;;;;;;;;;;;;
2022/12/25 18:32:06;;;;;;;;;;;8.40;99.90;;;;;;5050866;28;19931;-92
2022/12/25 18:34:35;;;;;;;;;;;8.30;99.90;;;;;;5027517;28;20267;-91
2022/12/25 18:37:03;;;;;;;;;;;7.50;99.90;;;;;;5056634;28;19924;-92
2022/12/25 18:39:34;;;;;;;;;;;8.30;99.90;;;;;;5041162;28;19924;-89
2022/12/25 18:45:09;;;;;;;;;;;8.30;99.90;;;;;;5070342;28;19936;-90
2022/12/25 18:47:51;;;;;;;;;;;8.20;99.90;;;;;;5060391;28;19935;-92
2022/12/25 18:50:34;;;;;;;;;;;8.30;99.90;;;;;;4973030;28;19925;-93
2022/12/25 18:53:00;;;;;;;;;;;8.30;99.90;;;;;;5036135;28;19924;-91
2022/12/25 18:55:31;;;;;;;;;;;8.30;99.90;;;;;;5033228;28;19977;-91
2022/12/25 18:58:07;;;;;;;;;;;8.30;99.90;;;;;;5055094;28;20009;-93
2022/12/25 19:01:00;;;;;;;;;;;8.30;99.90;;;;;;5023569;28;19925;-94
2022/12/25 19:03:42;;;;;;;;;;;8.30;99.90;;;;;;5020603;28;19932;-92
2022/12/25 19:06:27;;;;;;;;;;;;;;;;;;;;;
2022/12/25 19:08:56;;;;;;;;;;;8.30;99.90;;;;;;5036379;28;20284;-90
2022/12/25 19:11:29;;;;;;;;;;;8.30;99.90;;;;;;5004240;28;19925;-91
2022/12/25 19:14:03;;;;;;;;;;;8.20;99.90;;;;;;4991878;28;19932;-90
2022/12/25 19:16:47;;;;;;;;;;;8.20;99.90;;;;;;5017797;28;19964;-91
2022/12/25 19:19:38;;;;;;;;;;;;;;;;;;;;;
2022/12/25 19:22:04;;;;;;;;;;;8.20;99.90;;;;;;5020343;28;19935;-90
2022/12/25 19:24:48;;;;;;;;;;;8.20;99.90;;;;;;5025417;28;19934;-91
2022/12/25 19:27:22;;;;;;;;;;;9.10;99.90;;;;;;5014119;28;19978;-91
2022/12/25 19:30:04;;;;;;;;;;;8.20;99.90;;;;;;5033592;28;19925;-93
2022/12/25 19:32:32;;;;;;;;;;;8.20;99.90;;;;;;5004371;28;19932;-90
2022/12/25 19:35:03;;;;;;;;;;;7.70;99.90;;;;;;4998941;28;20346;-88
2022/12/25 19:37:51;;;;;;;;;;;8.10;99.90;;;;;;5011857;28;19933;-92
2022/12/25 19:40:26;;;;;;;;;;;8.10;99.90;;;;;;5031731;28;20250;-93
2022/12/25 19:43:21;;;;;;;;;;;;;;;;;;;;;
2022/12/25 19:46:00;;;;;;;;;;;;;;;;;;;;;
2022/12/25 19:48:49;;;;;;;;;;;8.10;99.90;;;;;;5054343;28;20012;-94
2022/12/25 19:51:34;;;;;;;;;;;7.50;99.90;;;;;;5057444;28;19932;-93
2022/12/25 19:54:20;;;;;;;;;;;8.10;99.90;;;;;;5060636;28;19921;-93
2022/12/25 19:57:02;;;;;;;;;;;;;;;;;;;;;